Time;durP1;ratioP1;P1;durP2;ratioP2;P2;SDS_P1;SDS_P2;PMS_P1;PMS_P2;Temp;Humidity;BMP_temperature;BMP_pressure;BME280_temperature;BME280_humidity;BME280_pressure;Samples;Min_cycle;Max_cycle;Signal;HPM_P1;HPM_P2
2021/03/02 00:00:07;;;;;;;59.95;33.00;;;;;;;2.36;79.78;102823.90;1746451;81;21640;-83
2021/03/02 00:02:42;;;;;;;49.53;29.63;;;;;;;2.35;79.79;102819.49;1746383;82;21127;-82
2021/03/02 00:05:10;;;;;;;32.95;21.02;;;;;;;2.36;79.82;102821.70;1746275;81;21138;-89
2021/03/02 00:07:42;;;;;;;65.65;38.42;;;;;;;2.34;79.81;102826.75;1746832;82;22868;-90
2021/03/02 00:10:12;;;;;;;61.40;35.90;;;;;;;2.32;79.80;102829.59;1746651;82;21122;-90
2021/03/02 00:12:40;;;;;;;57.20;35.00;;;;;;;2.31;79.85;102827.39;1746788;82;21178;-91
2021/03/02 00:15:12;;;;;;;39.80;24.18;;;;;;;2.30;79.89;102830.75;1741655;82;21170;-91
2021/03/02 00:17:48;;;;;;;93.10;57.00;;;;;;;2.29;79.83;102826.34;1746522;81;21135;-86
2021/03/02 00:20:23;;;;;;;57.13;35.65;;;;;;;2.26;79.74;102834.23;1746730;82;21938;-89
2021/03/02 00:23:01;;;;;;;47.43;30.20;;;;;;;2.23;79.79;102824.45;1746724;82;21137;-88
2021/03/02 00:25:36;;;;;;;31.37;20.68;;;;;;;2.21;79.81;102827.70;1746894;82;21155;-89
2021/03/02 00:28:12;;;;;;;28.67;17.48;;;;;;;2.18;79.75;102819.61;1746695;82;21153;-89
2021/03/02 00:30:39;;;;;;;25.08;15.55;;;;;;;2.17;79.94;102820.40;1746866;81;21122;-89
2021/03/02 00:33:06;;;;;;;21.62;14.25;;;;;;;2.17;79.85;102820.40;1746787;82;21892;-88
2021/03/02 00:35:33;;;;;;;31.25;16.77;;;;;;;2.15;79.90;102822.84;1746721;82;21635;-89
2021/03/02 00:38:00;;;;;;;26.73;15.83;;;;;;;2.17;80.00;102824.30;1746831;82;21155;-89
2021/03/02 00:40:27;;;;;;;26.10;16.48;;;;;;;2.12;79.74;102822.55;1746302;82;21198;-83
2021/03/02 00:42:54;;;;;;;32.78;19.25;;;;;;;2.07;79.72;102812.15;1746238;81;21162;-83
2021/03/02 00:45:21;;;;;;;29.95;18.05;;;;;;;1.99;79.77;102797.52;1746179;82;21902;-84
2021/03/02 00:47:52;;;;;;;23.50;16.27;;;;;;;1.97;79.78;102797.41;1746041;82;21585;-83
2021/03/02 00:50:21;;;;;;;27.48;17.98;;;;;;;1.92;79.74;102793.46;1746119;82;21154;-83
2021/03/02 00:52:48;;;;;;;30.85;18.62;;;;;;;1.86;79.68;102798.06;1746078;82;21182;-83
2021/03/02 00:55:15;;;;;;;24.75;15.43;;;;;;;1.82;79.63;102789.10;1746125;82;21210;-83
2021/03/02 00:57:42;;;;;;;24.40;14.40;;;;;;;1.76;79.67;102787.20;1746206;82;21898;-83
2021/03/02 01:00:10;;;;;;;37.08;23.45;;;;;;;1.67;79.61;102780.80;1746028;82;21142;-83
2021/03/02 01:02:37;;;;;;;35.52;21.42;;;;;;;1.60;79.63;102777.48;1746175;81;21182;-83
2021/03/02 01:05:06;;;;;;;36.58;22.35;;;;;;;1.58;79.84;102776.03;1746313;82;21240;-83
2021/03/02 01:07:33;;;;;;;24.65;15.80;;;;;;;1.56;79.91;102778.87;1746310;82;21209;-83
2021/03/02 01:10:01;;;;;;;34.50;21.77;;;;;;;1.55;80.11;102789.62;1746311;82;21836;-83
2021/03/02 01:12:29;;;;;;;41.58;27.52;;;;;;;1.58;80.29;102783.83;1746249;82;21233;-83
2021/03/02 01:14:56;;;;;;;20.12;13.85;;;;;;;1.61;80.40;102782.80;1746297;82;21593;-83
2021/03/02 01:17:23;;;;;;;41.58;27.10;;;;;;;1.64;80.46;102774.00;1746359;82;21255;-84
2021/03/02 01:19:50;;;;;;;55.05;35.88;;;;;;;1.66;80.34;102771.16;1746172;81;21151;-83
2021/03/02 01:22:18;;;;;;;59.40;38.67;;;;;;;1.65;80.36;102764.53;1746361;82;22879;-83
2021/03/02 01:24:46;;;;;;;21.93;14.07;;;;;;;1.62;80.26;102763.87;1746315;82;21154;-83
2021/03/02 01:27:13;;;;;;;18.17;12.35;;;;;;;1.58;80.22;102764.36;1746334;82;21189;-90
2021/03/02 01:29:47;;;;;;;21.85;13.75;;;;;;;1.55;80.22;102758.87;1746815;76;21126;-88
2021/03/02 01:32:14;;;;;;;18.55;12.53;;;;;;;1.51;80.14;102755.47;1746968;82;21224;-89
2021/03/02 01:34:41;;;;;;;38.63;29.23;;;;;;;1.47;80.18;102754.66;1746982;81;21904;-89
2021/03/02 01:37:12;;;;;;;41.85;28.73;;;;;;;1.44;80.20;102751.36;1746916;82;21166;-89
2021/03/02 01:39:44;;;;;;;51.25;36.28;;;;;;;1.41;80.22;102747.20;1746925;82;21163;-89
2021/03/02 01:42:11;;;;;;;23.52;15.65;;;;;;;1.41;80.39;102744.61;1746949;82;21138;-90
2021/03/02 01:44:43;;;;;;;19.73;13.93;;;;;;;1.41;80.34;102747.56;1746841;82;21218;-90
2021/03/02 01:47:15;;;;;;;21.80;14.33;;;;;;;1.41;80.41;102751.45;1746808;81;22771;-90
2021/03/02 01:49:53;;;;;;;18.85;13.20;;;;;;;1.38;80.24;102748.59;1746942;82;21636;-91
2021/03/02 01:52:35;;;;;;;17.98;11.93;;;;;;;1.31;80.13;102753.58;1746545;82;21171;-84
2021/03/02 01:55:13;;;;;;;16.50;12.28;;;;;;;1.27;80.24;102757.56;1746279;82;21174;-84
2021/03/02 01:57:53;;;;;;;18.80;13.32;;;;;;;1.24;80.23;102754.70;1746336;81;21155;-84
2021/03/02 02:00:25;;;;;;;25.10;15.45;;;;;;;1.19;80.24;102757.23;1746277;82;21902;-84
2021/03/02 02:03:08;;;;;;;21.65;14.20;;;;;;;1.19;80.61;102759.82;1746174;81;21189;-83
2021/03/02 02:05:39;;;;;;;25.47;15.17;;;;;;;1.33;81.04;102759.82;1746784;82;21134;-91
2021/03/02 02:08:07;;;;;;;23.65;14.95;;;;;;;1.42;81.06;102763.68;1746797;82;21602;-90
2021/03/02 02:10:45;;;;;;;24.55;14.63;;;;;;;1.46;81.02;102760.20;1741836;81;21138;-89
2021/03/02 02:13:17;;;;;;;24.32;15.45;;;;;;;1.46;80.84;102760.59;1745873;82;21846;-83
2021/03/02 02:15:44;;;;;;;23.92;14.95;;;;;;;1.44;80.72;102754.35;1746135;82;21193;-83
2021/03/02 02:18:19;;;;;;;23.18;15.28;;;;;;;1.38;80.59;102755.08;1746588;81;21605;-92
2021/03/02 02:20:54;;;;;;;26.40;15.72;;;;;;;1.34;80.66;102757.38;1746777;81;21471;-92
2021/03/02 02:24:11;;;;;;;31.57;19.75;;;;;;;1.29;80.47;102761.60;1746418;82;21150;-91
2021/03/02 02:26:55;;;;;;;30.65;17.70;;;;;;;1.30;80.68;102766.04;1745452;82;21975;-89
2021/03/02 02:29:31;;;;;;;34.10;19.10;;;;;;;1.29;80.53;102766.39;1746882;81;21533;-90
2021/03/02 02:31:58;;;;;;;30.82;17.30;;;;;;;1.26;80.67;102760.00;1746641;82;21206;-89
2021/03/02 02:34:26;;;;;;;36.83;20.50;;;;;;;1.21;80.47;102769.05;1746643;80;21581;-89
2021/03/02 02:36:54;;;;;;;33.73;20.45;;;;;;;1.11;80.41;102764.28;1746710;82;21314;-90
2021/03/02 02:39:21;;;;;;;41.98;21.45;;;;;;;1.05;80.39;102770.19;1746755;82;21899;-90
2021/03/02 02:41:49;;;;;;;31.25;18.50;;;;;;;1.03;80.54;102761.32;1746552;81;21604;-90
2021/03/02 02:44:16;;;;;;;34.18;19.50;;;;;;;1.01;80.47;102761.95;1746760;82;21166;-89
2021/03/02 02:46:43;;;;;;;30.48;18.40;;;;;;;0.93;80.30;102767.70;1746641;81;21190;-89
2021/03/02 02:49:11;;;;;;;29.27;17.92;;;;;;;0.86;80.44;102756.20;1746680;82;21134;-89
2021/03/02 02:51:38;;;;;;;28.87;17.95;;;;;;;0.82;80.49;102760.18;1746854;82;22099;-92
2021/03/02 02:54:07;;;;;;;30.30;17.95;;;;;;;0.85;80.92;102763.47;1737968;81;21568;-91
2021/03/02 02:56:36;;;;;;;27.13;16.42;;;;;;;0.83;80.76;102760.72;1733778;82;21119;-90
2021/03/02 02:59:16;;;;;;;30.80;17.45;;;;;;;0.79;80.70;102761.20;1733737;82;21604;-90
2021/03/02 03:01:47;;;;;;;31.62;17.60;;;;;;;0.73;80.58;102759.28;1734015;82;21605;-91
2021/03/02 03:04:18;;;;;;;27.52;16.82;;;;;;;0.67;80.58;102757.02;1733924;82;22097;-90
2021/03/02 03:06:45;;;;;;;32.15;17.23;;;;;;;0.65;80.78;102758.94;1733760;80;21262;-92
2021/03/02 03:09:25;;;;;;;26.37;16.77;;;;;;;0.69;81.05;102751.59;1733981;82;21541;-91
2021/03/02 03:12:00;;;;;;;29.30;16.30;;;;;;;0.67;80.78;102747.04;1733952;82;21167;-92
2021/03/02 03:14:28;;;;;;;26.68;16.55;;;;;;;0.60;80.68;102742.92;1734082;82;22215;-90
2021/03/02 03:16:55;;;;;;;30.23;16.93;;;;;;;0.55;80.81;102738.60;1734010;82;21894;-90
2021/03/02 03:19:28;;;;;;;27.02;15.45;;;;;;;0.52;80.78;102736.09;1738988;81;21256;-89
2021/03/02 03:21:55;;;;;;;30.77;17.10;;;;;;;0.50;80.81;102732.05;1753927;81;21140;-89
2021/03/02 03:24:22;;;;;;;28.30;16.10;;;;;;;0.42;80.83;102727.81;1753707;81;21617;-91
2021/03/02 03:26:58;;;;;;;24.27;14.58;;;;;;;0.46;80.80;102730.33;1753687;81;21161;-90
2021/03/02 03:29:25;;;;;;;25.00;15.23;;;;;;;0.41;80.67;102735.04;1753772;81;22870;-89
2021/03/02 03:31:53;;;;;;;27.95;16.25;;;;;;;0.36;80.68;102734.61;1753643;81;21172;-89
2021/03/02 03:34:20;;;;;;;28.07;16.35;;;;;;;0.31;80.65;102730.64;1753761;81;21145;-89
2021/03/02 03:36:47;;;;;;;31.80;17.17;;;;;;;0.27;80.69;102735.00;1753504;81;21100;-89
2021/03/02 03:39:14;;;;;;;32.20;16.45;;;;;;;0.23;80.73;102739.74;1753355;81;21567;-89
2021/03/02 03:41:41;;;;;;;31.42;17.32;;;;;;;0.18;80.75;102744.06;1753377;81;21891;-90
2021/03/02 03:44:10;;;;;;;29.80;17.52;;;;;;;0.15;80.86;102750.25;1753202;81;21200;-89
2021/03/02 03:46:37;;;;;;;29.82;16.87;;;;;;;0.16;81.10;102745.97;1753404;81;21124;-90
2021/03/02 03:49:04;;;;;;;29.30;17.37;;;;;;;0.14;81.19;102744.52;1753441;81;21160;-89
2021/03/02 03:51:31;;;;;;;27.10;16.20;;;;;;;0.16;81.36;102739.50;1753132;81;21172;-80
2021/03/02 03:53:58;;;;;;;26.77;15.70;;;;;;;0.15;81.31;102735.06;1727328;81;22873;-81
2021/03/02 03:56:25;;;;;;;28.83;16.87;;;;;;;0.16;81.52;102735.62;1752765;81;21147;-81
2021/03/02 03:58:52;;;;;;;29.37;15.83;;;;;;;0.22;81.58;102740.48;1752956;81;21659;-83
2021/03/02 04:01:19;;;;;;;24.95;15.20;;;;;;;0.22;81.57;102731.42;1752869;81;21587;-83
2021/03/02 04:03:47;;;;;;;25.27;15.83;;;;;;;0.22;81.63;102728.44;1752920;81;21196;-81
2021/03/02 04:06:14;;;;;;;24.37;15.00;;;;;;;0.25;81.67;102728.75;1752879;81;22932;-82
2021/03/02 04:08:41;;;;;;;24.90;14.70;;;;;;;0.22;81.36;102731.03;1752897;81;21148;-83
2021/03/02 04:11:08;;;;;;;20.75;13.50;;;;;;;0.19;81.46;102728.16;1752950;81;21192;-85
2021/03/02 04:13:35;;;;;;;24.77;14.85;;;;;;;0.21;81.60;102730.88;1753132;81;21137;-84
2021/03/02 04:16:03;;;;;;;27.27;15.98;;;;;;;0.25;81.68;102727.85;1752970;81;21160;-84
2021/03/02 04:18:29;;;;;;;27.70;15.70;;;;;;;0.23;81.65;102734.17;1726955;81;21909;-83
2021/03/02 04:20:57;;;;;;;24.70;15.60;;;;;;;0.23;81.65;102730.67;1736719;81;21222;-83
2021/03/02 04:23:24;;;;;;;24.55;15.20;;;;;;;0.21;81.64;102726.63;1733225;81;21222;-83
2021/03/02 04:25:51;;;;;;;22.25;14.05;;;;;;;0.29;82.00;102727.38;1733022;81;21191;-82
2021/03/02 04:28:25;;;;;;;22.85;15.03;;;;;;;0.28;81.70;102713.88;1733189;82;21243;-82
2021/03/02 04:30:52;;;;;;;23.18;14.87;;;;;;;0.26;81.78;102713.73;1733114;81;21900;-84
2021/03/02 04:33:19;;;;;;;25.10;15.50;;;;;;;0.25;81.65;102721.37;1733057;82;21187;-83
2021/03/02 04:35:46;;;;;;;23.62;15.63;;;;;;;0.24;81.77;102719.53;1732947;82;21222;-83
2021/03/02 04:38:16;;;;;;;23.50;16.00;;;;;;;0.21;81.72;102721.45;1732890;82;21278;-83
2021/03/02 04:40:43;;;;;;;25.32;16.93;;;;;;;0.25;82.08;102724.87;1733304;82;21664;-85
2021/03/02 04:43:10;;;;;;;29.98;18.25;;;;;;;0.30;82.26;102720.12;1733220;82;21911;-83
2021/03/02 04:45:37;;;;;;;26.30;18.77;;;;;;;0.40;82.35;102728.05;1733113;82;21226;-83
2021/03/02 04:48:05;;;;;;;23.92;17.20;;;;;;;0.48;82.52;102724.91;1733153;82;21198;-82
2021/03/02 04:50:32;;;;;;;26.15;18.17;;;;;;;0.50;82.33;102719.48;1733299;82;21615;-83
2021/03/02 04:52:59;;;;;;;27.95;18.70;;;;;;;0.49;82.27;102709.52;1733387;82;21151;-83
2021/03/02 04:55:26;;;;;;;27.58;18.42;;;;;;;0.43;81.99;102702.81;1733439;82;21903;-82
2021/03/02 04:57:53;;;;;;;26.25;17.87;;;;;;;0.38;82.05;102703.28;1746688;81;21780;-82
2021/03/02 05:00:22;;;;;;;22.27;15.28;;;;;;;0.33;81.96;102700.62;1767934;81;21654;-80
2021/03/02 05:02:49;;;;;;;27.05;16.48;;;;;;;0.37;82.31;102697.55;1767931;81;21278;-82
2021/03/02 05:05:16;;;;;;;26.17;17.12;;;;;;;0.40;82.21;102706.42;1768111;81;21211;-82
2021/03/02 05:07:42;;;;;;;23.15;16.02;;;;;;;0.39;82.23;102717.14;1768093;81;21904;-82
2021/03/02 05:10:11;;;;;;;22.42;15.53;;;;;;;0.39;82.42;102704.19;1767998;81;21611;-82
2021/03/02 05:12:38;;;;;;;26.77;16.12;;;;;;;0.46;82.43;102708.30;1768059;81;21116;-81
2021/03/02 05:15:06;;;;;;;25.92;16.07;;;;;;;0.45;82.23;102705.17;1768038;81;21160;-81
2021/03/02 05:17:33;;;;;;;24.95;17.15;;;;;;;0.42;82.18;102706.19;1768140;81;21172;-84
2021/03/02 05:20:00;;;;;;;22.32;15.08;;;;;;;0.40;82.22;102716.78;1767144;81;21898;-83
2021/03/02 05:22:27;;;;;;;30.30;16.90;;;;;;;0.39;82.33;102724.91;1765392;81;21167;-85
2021/03/02 05:24:54;;;;;;;26.80;17.23;;;;;;;0.46;82.64;102745.48;1765579;81;21602;-84
2021/03/02 05:27:24;;;;;;;31.60;18.55;;;;;;;0.49;82.66;102760.05;1765407;81;21159;-87
2021/03/02 05:29:51;;;;;;;29.85;17.15;;;;;;;0.58;82.84;102767.42;1765530;81;21128;-84
2021/03/02 05:32:18;;;;;;;27.02;16.32;;;;;;;0.60;82.72;102762.36;1765583;81;22167;-82
2021/03/02 05:37:52;;;;;;;25.00;15.28;;;;;;;0.67;83.01;102746.64;1883575;76;23323;-84
2021/03/02 05:40:21;;;;;;;25.55;15.85;;;;;;;0.68;82.92;102747.59;1879868;76;21106;-82
2021/03/02 05:42:48;;;;;;;27.82;16.27;;;;;;;0.66;82.77;102737.06;1879658;75;21861;-84
2021/03/02 05:45:16;;;;;;;25.48;15.48;;;;;;;0.68;82.68;102740.71;1879606;76;21158;-82
2021/03/02 05:47:43;;;;;;;23.10;15.95;;;;;;;0.68;82.53;102741.11;1850692;76;21130;-83
2021/03/02 05:50:11;;;;;;;33.45;20.35;;;;;;;0.67;82.53;102743.16;1879316;75;21114;-81
2021/03/02 05:52:39;;;;;;;27.05;16.75;;;;;;;0.69;82.54;102742.91;1891489;74;21033;-82
2021/03/02 05:55:07;;;;;;;30.17;19.60;;;;;;;0.71;82.62;102742.67;1879576;76;21805;-81
2021/03/02 05:57:34;;;;;;;30.70;18.00;;;;;;;0.75;82.62;102741.84;1850748;76;21161;-81
2021/03/02 06:00:01;;;;;;;27.30;16.87;;;;;;;0.80;82.59;102743.56;1879492;76;21102;-81
2021/03/02 06:02:28;;;;;;;26.52;16.00;;;;;;;0.83;82.37;102750.75;1879433;76;21165;-83
2021/03/02 06:04:55;;;;;;;27.25;16.52;;;;;;;0.82;82.04;102739.83;1879488;76;21188;-84
2021/03/02 06:07:22;;;;;;;44.35;26.50;;;;;;;0.80;81.97;102748.75;1879476;76;21813;-82
2021/03/02 06:09:49;;;;;;;49.42;25.45;;;;;;;0.80;81.87;102746.55;1879580;76;21219;-83
2021/03/02 06:12:16;;;;;;;65.72;35.98;;;;;;;0.80;81.89;102758.22;1879708;76;21121;-84
2021/03/02 06:14:44;;;;;;;54.23;30.68;;;;;;;0.83;81.98;102764.61;1879294;76;22586;-83
2021/03/02 06:17:12;;;;;;;58.02;30.32;;;;;;;0.93;82.24;102769.00;1850431;75;21106;-82
2021/03/02 06:19:44;;;;;;;64.97;32.00;;;;;;;0.96;82.10;102768.01;1879478;76;21878;-82
2021/03/02 06:22:33;;;;;;;61.83;31.30;;;;;;;1.00;82.22;102775.70;1879352;76;21170;-83
2021/03/02 06:25:02;;;;;;;72.82;37.48;;;;;;;1.06;82.29;102789.25;1879381;76;21133;-83
2021/03/02 06:27:32;;;;;;;83.90;39.85;;;;;;;1.20;82.36;102793.16;1879193;76;21620;-81
2021/03/02 06:30:15;;;;;;;81.85;41.60;;;;;;;1.26;82.29;102799.85;1878674;75;21188;-81
2021/03/02 06:32:47;;;;;;;41.05;23.95;;;;;;;1.31;82.30;102802.52;1879417;75;21725;-82
2021/03/02 06:35:35;;;;;;;32.73;19.10;;;;;;;1.41;82.61;102800.41;1879364;76;21166;-81
2021/03/02 06:38:02;;;;;;;23.32;15.23;;;;;;;1.55;82.91;102804.29;1867800;76;21163;-81
2021/03/02 06:40:39;;;;;;;23.25;13.70;;;;;;;1.71;83.20;102806.27;1867415;76;21182;-81
2021/03/02 06:43:06;;;;;;;19.75;11.78;;;;;;;1.94;83.50;102813.98;1867700;76;21154;-81
2021/03/02 06:45:33;;;;;;;17.17;11.97;;;;;;;2.22;83.71;102814.85;1867476;76;21872;-83
2021/03/02 06:48:03;;;;;;;15.80;11.68;;;;;;;2.58;83.90;102828.08;1847978;76;21178;-84
2021/03/02 06:50:38;;;;;;;17.55;10.80;;;;;;;2.91;83.79;102829.30;1867026;76;21169;-83
2021/03/02 06:53:12;;;;;;;14.78;10.78;;;;;;;3.23;83.65;102837.72;1848796;76;21202;-82
2021/03/02 06:55:39;;;;;;;;;;;;;;;3.47;83.15;102828.55;1868820;76;21115;-81
2021/03/02 06:58:25;;;;;;;15.10;11.60;;;;;;;3.62;82.73;102829.90;1866796;76;22756;-82
2021/03/02 07:00:58;;;;;;;16.45;11.68;;;;;;;3.78;82.35;102839.03;1866782;76;21177;-82
2021/03/02 07:03:32;;;;;;;16.42;11.05;;;;;;;3.94;82.27;102839.94;1866773;76;21536;-82
2021/03/02 07:06:04;;;;;;;17.07;11.95;;;;;;;4.07;81.88;102847.64;1848320;76;21556;-82
2021/03/02 07:08:31;;;;;;;14.43;10.88;;;;;;;4.22;81.72;102848.40;1866753;76;21181;-82
2021/03/02 07:11:00;;;;;;;14.58;11.90;;;;;;;4.31;81.52;102843.96;1866683;76;21942;-82
2021/03/02 07:13:31;;;;;;;14.10;11.57;;;;;;;4.42;81.35;102859.21;1866852;76;21629;-81
2021/03/02 07:15:58;;;;;;;12.82;10.48;;;;;;;4.49;81.21;102858.95;1866831;76;21197;-80
2021/03/02 07:18:29;;;;;;;14.20;10.50;;;;;;;4.56;80.90;102860.34;1866637;76;21146;-82
2021/03/02 07:21:00;;;;;;;12.82;9.50;;;;;;;4.64;80.81;102862.82;1866822;76;21193;-82
2021/03/02 07:23:30;;;;;;;11.33;9.28;;;;;;;4.71;80.31;102865.56;1866880;76;22058;-82
2021/03/02 07:25:57;;;;;;;13.38;10.13;;;;;;;4.71;79.96;102871.14;1866766;76;21195;-81
2021/03/02 07:28:26;;;;;;;12.88;9.90;;;;;;;4.70;79.97;102871.55;1866829;76;21564;-82
2021/03/02 07:30:54;;;;;;;13.65;9.28;;;;;;;4.77;80.17;102869.97;1866728;76;21225;-82
2021/03/02 07:33:21;;;;;;;12.68;9.13;;;;;;;4.94;80.35;102867.44;1866779;76;21541;-83
2021/03/02 07:35:48;;;;;;;10.98;9.15;;;;;;;5.05;79.90;102873.14;1866734;76;22044;-83
2021/03/02 07:38:20;;;;;;;9.95;8.73;;;;;;;5.13;79.74;102881.59;1869668;76;21181;-83
2021/03/02 07:40:55;;;;;;;10.63;8.15;;;;;;;5.14;79.09;102882.50;1870037;76;21162;-83
2021/03/02 07:43:33;;;;;;;10.72;8.68;;;;;;;5.14;79.07;102880.79;1870043;76;21631;-82
2021/03/02 07:46:02;;;;;;;11.18;8.23;;;;;;;5.18;78.92;102874.13;1870098;76;21177;-84
2021/03/02 07:48:36;;;;;;;10.18;8.13;;;;;;;5.29;79.01;102875.90;1870051;76;23032;-82
2021/03/02 07:51:21;;;;;;;9.25;8.08;;;;;;;5.43;78.78;102873.11;1870191;76;21186;-81
2021/03/02 07:53:50;;;;;;;8.85;7.70;;;;;;;5.45;78.27;102878.05;1840736;76;21170;-82
2021/03/02 07:56:22;;;;;;;11.22;7.95;;;;;;;5.48;78.06;102876.07;1870190;76;21119;-83
2021/03/02 07:59:13;;;;;;;9.23;8.05;;;;;;;5.56;78.08;102877.21;1870319;76;21197;-82
2021/03/02 08:01:40;;;;;;;9.98;8.55;;;;;;;5.60;77.63;102884.49;1870152;76;21903;-81
2021/03/02 08:04:23;;;;;;;11.50;8.45;;;;;;;5.58;77.24;102887.38;1870099;76;21145;-84
2021/03/02 08:06:50;;;;;;;10.20;7.78;;;;;;;5.48;76.81;102887.45;1870467;76;21158;-82
2021/03/02 08:09:28;;;;;;;7.80;6.85;;;;;;;5.30;76.34;102883.36;1870086;76;21158;-82
2021/03/02 08:11:55;;;;;;;10.45;8.43;;;;;;;5.31;76.96;102882.55;1870157;76;21218;-82
2021/03/02 08:14:29;;;;;;;13.13;8.93;;;;;;;5.34;76.83;102890.65;1841374;76;22839;-83
2021/03/02 08:17:05;;;;;;;9.63;7.92;;;;;;;5.28;76.57;102893.67;1870211;76;21730;-82
2021/03/02 08:19:46;;;;;;;8.80;7.58;;;;;;;5.14;76.37;102896.45;1870208;76;21174;-82
2021/03/02 08:22:26;;;;;;;13.93;9.28;;;;;;;5.10;76.52;102897.00;1869941;76;21154;-83
2021/03/02 08:25:10;;;;;;;11.35;8.43;;;;;;;5.20;76.92;102899.59;1870171;76;21137;-82
2021/03/02 08:27:46;;;;;;;11.78;8.73;;;;;;;5.45;77.22;102902.88;1870220;76;21982;-83
2021/03/02 08:30:17;;;;;;;9.98;8.45;;;;;;;5.62;76.82;102895.08;1870071;76;21687;-83
2021/03/02 08:32:44;;;;;;;11.73;9.15;;;;;;;5.76;76.52;102907.91;1870017;76;21178;-83
2021/03/02 08:35:14;;;;;;;13.48;9.33;;;;;;;5.76;75.91;102919.30;1870023;76;21734;-83
2021/03/02 08:37:54;;;;;;;10.35;8.68;;;;;;;5.67;75.52;102922.86;1869915;76;21636;-83
2021/03/02 08:40:31;;;;;;;11.78;9.73;;;;;;;5.54;75.31;102926.22;1869581;76;21884;-83
2021/03/02 08:43:20;;;;;;;12.30;9.75;;;;;;;5.42;75.26;102920.52;1870002;76;21174;-83
2021/03/02 08:45:57;;;;;;;9.38;7.70;;;;;;;5.62;76.10;102923.81;1870032;76;21090;-84
2021/03/02 08:48:29;;;;;;;10.13;8.45;;;;;;;5.74;75.25;102916.03;1869538;76;21624;-82
2021/03/02 08:51:03;;;;;;;10.95;8.73;;;;;;;5.76;75.58;102913.14;1869950;76;21195;-83
2021/03/02 08:53:40;;;;;;;11.88;8.73;;;;;;;5.93;75.60;102915.41;1870322;76;21870;-83
2021/03/02 08:56:10;;;;;;;11.28;9.18;;;;;;;6.07;75.48;102907.76;1870095;76;21206;-83
2021/03/02 08:58:40;;;;;;;11.80;9.18;;;;;;;6.23;75.31;102912.05;1869403;76;21058;-83
2021/03/02 09:01:26;;;;;;;15.32;9.20;;;;;;;6.24;74.94;102908.66;1835541;78;21604;-83
2021/03/02 09:03:56;;;;;;;13.98;10.75;;;;;;;6.29;75.00;102904.70;1815590;77;21608;-83
2021/03/02 09:06:25;;;;;;;14.65;10.45;;;;;;;6.38;74.89;102905.41;1786681;79;22727;-82
2021/03/02 09:09:04;;;;;;;10.95;9.03;;;;;;;6.48;74.90;102910.05;1815518;79;21226;-83
2021/03/02 09:11:43;;;;;;;11.15;9.43;;;;;;;6.60;74.74;102914.88;1815551;79;21712;-83
2021/03/02 09:14:20;;;;;;;10.00;7.75;;;;;;;6.75;74.55;102917.75;1813679;77;21492;-82
2021/03/02 09:16:48;;;;;;;10.53;7.92;;;;;;;6.88;74.49;102932.68;1808535;79;21132;-82
2021/03/02 09:19:39;;;;;;;9.18;8.20;;;;;;;6.90;73.99;102939.84;1815608;78;23046;-82
2021/03/02 09:22:15;;;;;;;13.18;9.18;;;;;;;6.77;73.20;102934.07;1815770;79;21192;-83
2021/03/02 09:24:48;;;;;;;11.95;8.80;;;;;;;6.69;73.48;102941.75;1814858;79;21202;-83
2021/03/02 09:27:18;;;;;;;9.10;7.37;;;;;;;6.70;73.62;102938.36;1815764;78;21598;-82
2021/03/02 09:29:51;;;;;;;10.25;8.73;;;;;;;6.81;73.72;102937.84;1815781;78;21132;-82
2021/03/02 09:32:24;;;;;;;8.93;7.53;;;;;;;6.91;73.77;102941.67;1815798;79;21880;-82
2021/03/02 09:34:57;;;;;;;11.97;8.50;;;;;;;6.98;73.49;102941.72;1815688;77;21586;-81
2021/03/02 09:37:24;;;;;;;10.20;8.03;;;;;;;6.96;73.34;102943.31;1818495;78;21131;-82
2021/03/02 09:40:08;;;;;;;10.43;8.48;;;;;;;7.05;73.45;102949.23;1838644;77;21181;-81
2021/03/02 09:42:38;;;;;;;11.68;8.20;;;;;;;7.15;73.33;102953.08;1838625;77;21552;-81
2021/03/02 09:45:16;;;;;;;10.23;8.78;;;;;;;7.19;72.89;102952.91;1838615;78;21921;-84
2021/03/02 09:47:46;;;;;;;9.80;8.28;;;;;;;6.99;72.31;102967.12;1838465;78;21145;-82
2021/03/02 09:50:15;;;;;;;12.82;7.65;;;;;;;6.84;72.58;102967.28;1838440;78;21576;-81
2021/03/02 09:52:50;;;;;;;11.53;8.78;;;;;;;6.85;72.79;102981.80;1838533;77;21563;-82
2021/03/02 09:55:27;;;;;;;13.05;8.63;;;;;;;6.85;72.75;102973.01;1838561;78;21165;-82
2021/03/02 09:58:16;;;;;;;10.45;7.72;;;;;;;6.79;72.92;102980.94;1838605;77;21889;-82
2021/03/02 10:00:53;;;;;;;11.50;9.18;;;;;;;6.67;72.50;102969.92;1838583;77;21205;-82
2021/03/02 10:03:26;;;;;;;13.83;9.53;;;;;;;6.56;72.90;102970.40;1838587;77;21142;-82
2021/03/02 10:05:56;;;;;;;9.65;8.50;;;;;;;6.59;72.98;102977.19;1837208;78;21261;-82
2021/03/02 10:08:41;;;;;;;13.20;9.58;;;;;;;6.62;73.16;102974.78;1838640;78;21146;-82
2021/03/02 10:11:16;;;;;;;13.85;9.50;;;;;;;6.66;72.98;102976.84;1838246;78;22872;-82
2021/03/02 10:13:53;;;;;;;13.22;9.53;;;;;;;6.72;73.22;102986.49;1838599;78;21152;-82
2021/03/02 10:16:35;;;;;;;13.72;8.68;;;;;;;6.75;72.97;102997.58;1838588;78;21177;-82
2021/03/02 10:19:19;;;;;;;13.93;9.00;;;;;;;6.86;73.22;103006.27;1838532;77;21141;-81
2021/03/02 10:24:44;;;;;;;12.00;9.70;;;;;;;6.90;72.69;103002.67;1839470;77;22815;-82
2021/03/02 10:27:18;;;;;;;12.78;8.90;;;;;;;6.84;72.72;103011.38;1815323;78;21257;-80
2021/03/02 10:29:47;;;;;;;11.68;9.58;;;;;;;6.79;72.67;103020.20;1819863;78;21882;-81
2021/03/02 10:32:14;;;;;;;11.28;9.23;;;;;;;6.74;72.41;103022.86;1819664;78;21164;-81
2021/03/02 10:34:43;;;;;;;10.38;8.18;;;;;;;6.65;72.31;103040.87;1819921;78;21155;-81
2021/03/02 10:37:11;;;;;;;12.03;8.45;;;;;;;6.46;72.30;103016.25;1819786;78;21597;-81
2021/03/02 10:39:40;;;;;;;11.93;9.53;;;;;;;6.37;72.35;103028.23;1819832;78;21589;-80
2021/03/02 10:42:09;;;;;;;12.03;9.00;;;;;;;6.28;72.54;103027.51;1819719;78;21953;-80
2021/03/02 10:44:36;;;;;;;12.00;8.85;;;;;;;6.19;72.57;103024.70;1819787;78;21132;-80
2021/03/02 10:47:03;;;;;;;11.70;9.70;;;;;;;6.20;72.60;103042.59;1819909;78;21180;-81
2021/03/02 10:49:30;;;;;;;12.80;9.70;;;;;;;6.19;72.74;103028.98;1819668;78;21158;-82
2021/03/02 10:51:57;;;;;;;11.88;9.48;;;;;;;6.21;72.76;103038.80;1819875;78;21132;-81
2021/03/02 10:54:24;;;;;;;13.80;10.32;;;;;;;6.18;72.64;103025.88;1819832;78;21888;-81
2021/03/02 10:56:51;;;;;;;11.78;9.48;;;;;;;6.15;72.87;103029.55;1819642;78;21243;-82
2021/03/02 10:59:19;;;;;;;12.13;9.58;;;;;;;6.17;72.86;103032.78;1819692;78;21199;-82
2021/03/02 11:01:46;;;;;;;14.38;10.43;;;;;;;6.17;72.71;103035.80;1819651;78;21168;-82
2021/03/02 11:04:13;;;;;;;12.88;9.55;;;;;;;6.02;72.49;103025.97;1819794;78;21149;-82
2021/03/02 11:06:40;;;;;;;12.75;9.30;;;;;;;5.95;72.78;103022.34;1819767;78;22093;-81
2021/03/02 11:09:07;;;;;;;10.32;8.40;;;;;;;6.06;73.20;103023.58;1819746;78;21139;-82
2021/03/02 11:11:36;;;;;;;11.83;8.98;;;;;;;6.27;73.34;103019.13;1819794;78;21168;-82
2021/03/02 11:14:04;;;;;;;14.03;10.10;;;;;;;6.38;73.21;103016.59;1819774;78;21188;-82
2021/03/02 11:16:31;;;;;;;16.00;11.43;;;;;;;6.47;73.05;103003.30;1819883;78;21167;-81
2021/03/02 11:18:58;;;;;;;13.72;10.58;;;;;;;6.53;72.92;103000.24;1819802;78;22088;-81
2021/03/02 11:21:25;;;;;;;13.53;9.70;;;;;;;6.65;73.13;102990.73;1819644;78;21175;-80
2021/03/02 11:23:52;;;;;;;13.48;10.80;;;;;;;6.80;72.81;102991.00;1819575;78;21144;-83
2021/03/02 11:26:20;;;;;;;14.40;11.22;;;;;;;6.86;72.57;102983.60;1819689;78;21145;-83
2021/03/02 11:28:47;;;;;;;14.23;11.35;;;;;;;6.81;72.31;102983.64;1819851;78;21159;-82
2021/03/02 11:31:14;;;;;;;16.97;12.35;;;;;;;6.90;72.49;102975.19;1819774;78;21878;-82
2021/03/02 11:33:41;;;;;;;14.85;12.03;;;;;;;6.96;72.33;102984.83;1819848;78;21132;-82
2021/03/02 11:36:08;;;;;;;17.42;11.73;;;;;;;7.05;72.39;102986.31;1819029;78;21242;-82
2021/03/02 11:38:36;;;;;;;15.43;10.30;;;;;;;7.18;72.47;102977.27;1819229;78;21136;-82
2021/03/02 11:41:03;;;;;;;14.50;10.98;;;;;;;7.34;72.50;102968.84;1819208;78;21589;-82